AirNav   Air Wisconsin Up To $57,000 Bonus
 
 762 users online  

N97 Hiatt Airport
Thomasville, North Carolina, USA

GOING TO THOMASVILLE?


FAA INFORMATION EFFECTIVE 04 NOVEMBER 2021

Location

FAA Identifier: N97
Lat/Long: 35-49-48.4920N 080-06-27.1610W
35-49.808200N 080-06.452683W
35.8301367,-80.1075447
(estimated)
Elevation: 855 ft. / 261 m (estimated)
Variation: 10W (2000)
From city: 3 miles SW of THOMASVILLE, NC
Time zone: UTC -4 (UTC -5 during Standard Time)
Zip code: 27360

Airport Operations

Airport use: Open to the public
Activation date: 11/1959
Control tower: no
ARTCC: ATLANTA CENTER
FSS: RALEIGH FLIGHT SERVICE STATION
NOTAMs facility: RDU (NOTAM-D service available)
Attendance: 1200-DUSK
Wind indicator: yes
Segmented circle: no
Lights: LIRL RY 01/19 & TRIL RY 19 - ON TIMER. RY 01/19 - NSTD END LIGHTS.
Beacon: white-green (lighted land airport)
OTS INDEFINITELY. Operates sunset to sunrise.

Airport Communications

CTAF: 122.9
WX AWOS-3 at EXX (10 nm W): 119.825 (336-956-2967)
WX AWOS-3 at HBI (15 nm SE): 119.275 (336-626-7933)
WX ASOS at GSO (18 nm NE): 128.55 (336-393-0168)
WX ASOS at INT (19 nm N): PHONE 336-661-3096

Nearby radio navigation aids

VOR radial/distance  VOR name  Freq  Var
GSOr209/14.4GREENSBORO VORTAC116.2003W
LIBr276/24.1LIBERTY VORTAC113.0003W

 
NDB name  Hdg/Dist  Freq  Var  ID
REENO176/14.731707WIN .. -.
SLAMMER214/37.142307WSIF ... .. ..-.

Airport Services

Fuel available: 100LL
100LL:FOR FUEL CALL 336-881-0248.
Parking: hangars and tiedowns
Airframe service: MAJOR
Powerplant service: MAJOR
Bottled oxygen: NONE
Bulk oxygen: NONE

Runway Information

Runway 1/19

Dimensions: 2500 x 75 ft. / 762 x 23 m
Surface: turf, in good condition
Runway edge lights: low intensity
RUNWAY 1  RUNWAY 19
Traffic pattern: leftleft
Visual slope indicator: tri-color VASI on left (3.20 degrees glide path)
Obstructions: 58 ft. trees, 5 ft. from runway, 69 ft. left of centerline75 ft. trees, 376 ft. from runway, 87 ft. right of centerline, 5:1 slope to clear

Runway 9/27

Dimensions: 1160 x 50 ft. / 354 x 15 m
Surface: turf, in good condition
Operational restrictions: USED PRIMARILY FOR ULTRALIGHTS. RY 27 UPHILL. MARKED WITH YELLOW CONES. NO LINE SIGHT BTWN RY ENDS.
RUNWAY 9  RUNWAY 27
Traffic pattern: leftleft
Obstructions: 59 ft. trees, 214 ft. from runway, 36 ft. left of centerline, 3:1 slope to clear42 ft. trees, 62 ft. from runway, 1:1 slope to clear

Airport Ownership and Management from official FAA records

Ownership: Privately-owned
Owner: PAUL DOUGLAS THARP
701 MYRTLE DRIVE
THOMASVILLE, NC 27260
Phone (336) 881-0248
Manager: PAUL DOUGLAS THARP
701 MYRTLE DRIVE
THOMASVILLE, NC 27260
Phone 336-881-0248

Airport Operational Statistics

Aircraft based on the field: 23
Single engine airplanes: 20
Helicopters: 1
Ultralights: 2
    
Aircraft operations: avg 30/day *
82% local general aviation
14% transient general aviation
5% military
* for 12-month period ending 10 May 2019

Additional Remarks

RWY 19 PREFERRED FOR LDNG UPHILL; RWY AND THLDS MARKED WITH YELLOW CONES.
RWYS 01/19 & 09/27 VFR USE ONLY.
RWY 27 HAS +40 FT TREES 70 FT FROM THLD.
BE ALERT FOR NUMEROUS TREES IN THE APCH.
AIRCRAFT MONITOR 122.9.
RWY 19 HAS 75 FT DROP OFF 50 FT FROM END BOTH SIDES OF CNTRLN.
FOR CD CTC GREENSBORO APCH AT 336-333-5119.

Instrument Procedures

There are no published instrument procedures at N97.

Some nearby airports with instrument procedures:

KEXX - Davidson County Airport (10 nm W)
KHBI - Asheboro Regional Airport (15 nm SE)
8A7 - Twin Lakes Airport (18 nm W)
KGSO - Piedmont Triad International Airport (18 nm NE)
KINT - Smith Reynolds Airport (19 nm N)
 
Loc | Ops | Rwys | IFR | FBO | Links
Com | Nav | Svcs | Stats | Notes
Area around N97 (Hiatt Airport)
 
Road maps at: MapQuest Bing Google
 
Aerial photo
WARNING: Photo may not be current or correct
Aerial photo of N97 (Hiatt Airport)
Photo taken 07-Nov-2009

Do you have a better or more recent aerial photo of Hiatt Airport that you would like to share? If so, please send us your photo.

 
Sectional chart

 
Airport distance calculator
Flying to Hiatt Airport? Find the distance to fly.

From to N97

Sunrise and sunset
Times for 01-Dec-2021
 Local
(UTC-5)
 Zulu
(UTC)
Morning civil twilight06:4511:45
Sunrise07:1312:13
Sunset17:0622:06
Evening civil twilight17:3422:34

Current date and time
Zulu (UTC)  01-Dec-2021 05:38:13
Local (UTC-5)  01-Dec-2021 00:38:13
 
METAR
KEXX 
10nm W 
010515Z AUTO 00000KT 10SM CLR 01/M02 A3013 RMK AO2 T00121022
KHBI 
15nm SE 
010515Z AUTO 19003KT 10SM CLR 04/M04 A3016 RMK AO2 T00371041
KGSO 
18nm NE 
010454Z 27006KT 10SM CLR 06/M02 A3012 RMK AO2 SLP199 T00561022 401441033
KINT 
19nm N 
010454Z AUTO 00000KT 10SM CLR 06/M03 A3014 RMK AO2 SLP205 T00611028 401561039
TAF
KGSO 
18nm NE 
301720Z 3018/0118 23012G18KT P6SM FEW080 FEW250 FM302200 VRB05KT P6SM FEW250
KINT 
19nm N 
301720Z 3018/0118 23009G17KT P6SM FEW080 FEW250 FM302200 VRB05KT P6SM FEW250
NOTAMs
Click for the latest NOTAMs
NOTAMs are issued by the DoD/FAA and will open in a separate window not controlled by AirNav.

 

 
 

FBO, Fuel Providers, and Aircraft Ground Support

  
 Business Name 
 
 Contact 
 
 Services / Description 
 
Fuel Prices
 
Comments
  
Hiatt Airport 336-881-0248
no information available

If you are affiliated with Hiatt Airport and would like to show here your services, contact info, web link, logo, and more, click here
100LL
AS $4.75 
 Updated 30-Jul-2018
 
   write
AS=Assisted/Self Service
Update Fuel Prices
 

Would you like to see your business listed on this page?

 If your business provides an interesting product or service to pilots, flight crews, aircraft, or users of the Hiatt Airport, you should consider listing it here.  To start the listing process, click on the button below
 
Add a business
 

Other Pages about Hiatt Airport

Update a link
 
Copyright © AirNav, LLC. All rights reserved. Privacy Policy  Contact